Wawanesa, Canada
Current Conditions -  °F | °C
As of 8:00 PM on Thursday 20 Nov 2014 (Local Time) from CYBR Reporting Station
Scattered Clouds Scattered Clouds  
Wind Chill:   Ceiling: Unl
Heat Index: 14°   Visibility: 15mi
Dew Point:   Wind: 6mph
Humidity: 67%   Direction: 180°S
Pressure: 29.91"   Gusts: NA
Location:  49.52°N, 99.68°W
Report Text: CYBR 210200Z 18005KT 15SM FEW110 SCT170 M10/M15 A2991 RMK AC1AC2 SLP167
Loading
Personal Weather Stations






























Interactive Weather Map New forecast layout! Learn more

10-Day Weather Forecast

Advertisements
Track Severe Weather on mobile